createdAt,value
2023-04-09T00:01:11.568Z,20.63
2023-04-09T00:03:39.191Z,20.98
2023-04-09T00:06:06.785Z,20.00
2023-04-09T00:08:33.626Z,19.85
2023-04-09T00:11:00.420Z,19.25
2023-04-09T00:13:38.388Z,23.30
2023-04-09T00:16:07.989Z,20.77
2023-04-09T00:18:35.652Z,19.30
2023-04-09T00:21:02.453Z,19.58
2023-04-09T00:23:29.243Z,19.00
2023-04-09T00:25:56.569Z,19.70
2023-04-09T00:28:23.397Z,18.67
2023-04-09T00:30:50.270Z,19.00
2023-04-09T00:33:17.064Z,19.20
2023-04-09T00:35:43.812Z,18.65
2023-04-09T00:38:10.577Z,19.85
2023-04-09T00:40:37.632Z,19.25
2023-04-09T00:43:04.439Z,19.80
2023-04-09T00:45:31.213Z,18.85
2023-04-09T00:47:58.006Z,19.35
2023-04-09T00:50:24.936Z,18.38
2023-04-09T00:52:52.370Z,19.42
2023-04-09T00:55:21.300Z,20.20
2023-04-09T00:57:48.099Z,18.60
2023-04-09T01:00:15.371Z,19.40
2023-04-09T01:02:43.688Z,19.00
2023-04-09T01:05:12.655Z,18.88
2023-04-09T01:08:22.096Z,18.42
2023-04-09T01:11:37.983Z,18.50
2023-04-09T01:14:36.088Z,17.73
2023-04-09T01:17:12.559Z,18.80
2023-04-09T01:20:16.855Z,19.70
2023-04-09T01:23:07.340Z,19.35
2023-04-09T01:26:08.008Z,19.33
2023-04-09T01:28:45.556Z,18.30
2023-04-09T01:31:17.387Z,20.25
2023-04-09T01:33:45.944Z,20.13
2023-04-09T01:36:14.508Z,18.67
2023-04-09T01:38:44.424Z,21.30
2023-04-09T01:41:18.765Z,21.38
2023-04-09T01:43:48.160Z,20.60
2023-04-09T01:46:18.557Z,22.75
2023-04-09T01:48:46.473Z,21.92
2023-04-09T01:51:14.605Z,21.33
2023-04-09T01:53:42.467Z,23.45
2023-04-09T01:56:10.001Z,23.20
2023-04-09T01:58:36.772Z,23.67
2023-04-09T02:01:37.904Z,23.73
2023-04-09T02:04:17.860Z,21.90
2023-04-09T02:07:01.439Z,21.92
2023-04-09T02:09:31.778Z,20.52
2023-04-09T02:12:04.021Z,22.00
2023-04-09T02:14:33.228Z,22.15
2023-04-09T02:17:01.707Z,22.10
2023-04-09T02:19:43.151Z,21.65
2023-04-09T02:22:11.172Z,22.40
2023-04-09T02:24:38.249Z,23.10
2023-04-09T02:27:06.720Z,22.27
2023-04-09T02:29:34.024Z,22.58
2023-04-09T02:32:01.352Z,22.05
2023-04-09T02:34:28.561Z,23.88
2023-04-09T02:36:55.323Z,22.58
2023-04-09T02:39:22.365Z,22.73
2023-04-09T02:41:49.153Z,23.17
2023-04-09T02:44:16.021Z,23.52
2023-04-09T02:46:44.521Z,23.13
2023-04-09T02:49:11.391Z,22.40
2023-04-09T02:51:38.187Z,22.05
2023-04-09T02:54:05.076Z,22.95
2023-04-09T02:56:31.861Z,21.88
2023-04-09T02:58:58.677Z,22.67
2023-04-09T03:01:25.483Z,22.50
2023-04-09T03:03:52.305Z,22.50
2023-04-09T03:06:19.271Z,23.40
2023-04-09T03:08:46.030Z,23.13
2023-04-09T03:11:12.815Z,22.52
2023-04-09T03:13:39.569Z,21.88
2023-04-09T03:16:06.695Z,21.40
2023-04-09T03:18:33.469Z,20.95
2023-04-09T03:21:00.236Z,19.92
2023-04-09T03:23:27.260Z,20.30
2023-04-09T03:26:02.371Z,19.55
2023-04-09T03:28:29.347Z,18.70
2023-04-09T03:30:56.517Z,19.92
2023-04-09T03:33:25.579Z,20.10
2023-04-09T03:35:52.736Z,20.85
2023-04-09T03:38:19.731Z,21.23
2023-04-09T03:40:46.721Z,21.20
2023-04-09T03:43:13.611Z,21.50
2023-04-09T03:45:40.429Z,20.95
2023-04-09T03:48:07.229Z,20.02
2023-04-09T03:50:42.006Z,22.58
2023-04-09T03:53:08.868Z,23.20
2023-04-09T03:55:35.655Z,22.25
2023-04-09T03:58:02.465Z,22.13
2023-04-09T04:00:29.236Z,21.95
2023-04-09T04:02:56.342Z,21.52
2023-04-09T04:05:25.991Z,21.80
2023-04-09T04:07:53.117Z,22.90
2023-04-09T04:10:20.270Z,22.50
2023-04-09T04:12:47.159Z,23.02
2023-04-09T04:15:14.277Z,23.75
2023-04-09T04:17:41.097Z,20.63
2023-04-09T04:20:08.717Z,20.42
2023-04-09T04:22:35.837Z,20.17
2023-04-09T04:25:04.368Z,19.77
2023-04-09T04:27:31.189Z,19.63
2023-04-09T04:29:59.019Z,19.45
2023-04-09T04:32:26.287Z,19.35
2023-04-09T04:34:53.147Z,18.88
2023-04-09T04:37:20.504Z,19.02
2023-04-09T04:39:47.248Z,18.95
2023-04-09T04:42:14.697Z,18.27
2023-04-09T04:44:41.455Z,19.10
2023-04-09T04:47:08.242Z,20.50
2023-04-09T04:49:35.036Z,19.08
2023-04-09T04:52:01.817Z,18.70
2023-04-09T04:54:28.652Z,17.65
2023-04-09T04:56:56.177Z,18.35
2023-04-09T04:59:23.033Z,18.42
2023-04-09T05:01:49.875Z,17.90
2023-04-09T05:04:16.694Z,17.02
2023-04-09T05:06:43.456Z,17.20
2023-04-09T05:09:10.407Z,17.50
2023-04-09T05:11:37.150Z,18.95
2023-04-09T05:14:04.821Z,16.92
2023-04-09T05:16:32.843Z,18.75
2023-04-09T05:19:00.045Z,18.15
2023-04-09T05:21:27.605Z,18.33
2023-04-09T05:23:54.545Z,18.42
2023-04-09T05:26:21.818Z,18.92
2023-04-09T05:28:49.168Z,18.63
2023-04-09T05:31:16.207Z,18.70
2023-04-09T05:33:43.208Z,19.05
2023-04-09T05:36:19.134Z,19.00
2023-04-09T05:38:49.007Z,18.02
2023-04-09T05:41:16.109Z,17.92
2023-04-09T05:43:44.091Z,18.25
2023-04-09T05:46:11.171Z,18.90
2023-04-09T05:48:38.015Z,19.73
2023-04-09T05:51:04.918Z,19.55
2023-04-09T05:53:32.415Z,19.50
2023-04-09T05:55:59.207Z,19.05
2023-04-09T05:58:28.133Z,18.33
2023-04-09T06:00:54.900Z,19.13
2023-04-09T06:03:21.818Z,19.40
2023-04-09T06:05:49.901Z,18.98
2023-04-09T06:08:16.688Z,19.25
2023-04-09T06:10:43.488Z,18.77
2023-04-09T06:13:10.489Z,18.38
2023-04-09T06:15:39.252Z,20.80
2023-04-09T06:18:06.362Z,18.65
2023-04-09T06:20:33.330Z,21.52
2023-04-09T06:23:00.063Z,20.25
2023-04-09T06:25:26.842Z,18.52
2023-04-09T06:27:53.617Z,18.92
2023-04-09T06:30:20.424Z,18.70
2023-04-09T06:32:54.487Z,19.17
2023-04-09T06:35:22.689Z,19.80
2023-04-09T06:37:49.437Z,20.70
2023-04-09T06:40:16.414Z,18.73
2023-04-09T06:42:43.218Z,18.25
2023-04-09T06:45:10.399Z,19.40
2023-04-09T06:47:37.340Z,18.83
2023-04-09T06:50:05.879Z,19.45
2023-04-09T06:52:32.645Z,18.50
2023-04-09T06:54:59.579Z,19.67
2023-04-09T06:57:27.216Z,19.25
2023-04-09T06:59:54.019Z,19.83
2023-04-09T07:02:20.931Z,20.67
2023-04-09T07:04:48.041Z,21.52
2023-04-09T07:07:15.395Z,20.10
2023-04-09T07:09:43.033Z,19.10
2023-04-09T07:12:09.917Z,21.08
2023-04-09T07:14:36.734Z,20.98
2023-04-09T07:17:03.599Z,19.40
2023-04-09T07:19:31.014Z,20.55
2023-04-09T07:21:57.781Z,20.83
2023-04-09T07:24:24.510Z,21.02
2023-04-09T07:26:52.564Z,21.00
2023-04-09T07:29:20.732Z,21.90
2023-04-09T07:31:47.706Z,20.35
2023-04-09T07:34:14.594Z,20.70
2023-04-09T07:36:42.923Z,20.60
2023-04-09T07:39:09.763Z,19.67
2023-04-09T07:41:37.525Z,19.75
2023-04-09T07:44:06.233Z,19.48
2023-04-09T07:46:33.258Z,19.48
2023-04-09T07:49:00.127Z,21.00
2023-04-09T07:51:27.690Z,18.60
2023-04-09T07:53:54.459Z,18.88
2023-04-09T07:56:22.337Z,18.63
2023-04-09T07:58:50.739Z,20.67
2023-04-09T08:01:17.772Z,20.20
2023-04-09T08:03:44.640Z,20.30
2023-04-09T08:06:11.671Z,20.55
2023-04-09T08:08:38.433Z,20.60
2023-04-09T08:11:05.735Z,19.77
2023-04-09T08:13:32.556Z,21.58
2023-04-09T08:16:02.676Z,19.05
2023-04-09T08:18:29.714Z,18.25
2023-04-09T08:20:57.391Z,21.90
2023-04-09T08:23:24.156Z,20.15
2023-04-09T08:25:50.923Z,20.35
2023-04-09T08:28:17.680Z,18.00
2023-04-09T08:30:44.670Z,19.38
2023-04-09T08:33:11.494Z,21.15
2023-04-09T08:35:40.378Z,19.67
2023-04-09T08:38:07.157Z,21.48
2023-04-09T08:40:37.556Z,20.98
2023-04-09T08:43:09.640Z,21.17
2023-04-09T08:45:36.592Z,21.15
2023-04-09T08:48:05.657Z,21.17
2023-04-09T08:50:36.215Z,19.27
2023-04-09T08:53:05.819Z,21.70
2023-04-09T08:55:37.262Z,21.48
2023-04-09T08:58:13.701Z,20.60
2023-04-09T09:00:40.779Z,20.60
2023-04-09T09:03:15.921Z,20.45
2023-04-09T09:05:45.721Z,20.75
2023-04-09T09:08:23.752Z,22.42
2023-04-09T09:10:50.603Z,22.17
2023-04-09T09:13:23.536Z,20.88
2023-04-09T09:15:56.348Z,21.55
2023-04-09T09:18:44.402Z,21.15
2023-04-09T09:21:19.436Z,22.35
2023-04-09T09:23:48.459Z,20.98
2023-04-09T09:26:21.804Z,20.88
2023-04-09T09:28:49.456Z,21.05
2023-04-09T09:31:18.551Z,21.00
2023-04-09T09:33:46.725Z,20.88
2023-04-09T09:36:14.413Z,19.95
2023-04-09T09:38:57.027Z,22.80
2023-04-09T09:41:25.999Z,20.77
2023-04-09T09:43:52.881Z,21.73
2023-04-09T09:46:22.296Z,22.60
2023-04-09T09:48:49.812Z,21.40
2023-04-09T09:51:16.823Z,19.27
2023-04-09T09:53:53.452Z,21.77
2023-04-09T09:56:32.643Z,20.10
2023-04-09T09:59:08.637Z,20.10
2023-04-09T10:01:37.900Z,19.08
2023-04-09T10:04:07.265Z,18.88
2023-04-09T10:06:34.612Z,19.25
2023-04-09T10:09:05.124Z,18.98
2023-04-09T10:11:35.290Z,17.98
2023-04-09T10:14:03.047Z,19.63
2023-04-09T10:16:31.142Z,19.20
2023-04-09T10:18:59.785Z,20.17
2023-04-09T10:21:53.709Z,17.77
2023-04-09T10:24:21.510Z,18.10
2023-04-09T10:26:48.957Z,16.98
2023-04-09T10:29:16.878Z,18.65
2023-04-09T10:32:05.044Z,17.20
2023-04-09T10:34:38.530Z,17.55
2023-04-09T10:37:14.939Z,15.13
2023-04-09T10:39:47.437Z,16.95
2023-04-09T10:42:30.835Z,16.38
2023-04-09T10:45:14.977Z,16.70
2023-04-09T10:50:30.798Z,16.52
2023-04-09T10:53:00.423Z,15.00
2023-04-09T10:55:38.609Z,15.93
2023-04-09T10:58:13.203Z,16.42
2023-04-09T11:00:44.569Z,15.75
2023-04-09T11:03:30.896Z,16.30
2023-04-09T11:06:10.456Z,14.65
2023-04-09T11:08:38.694Z,15.98
2023-04-09T11:11:05.918Z,15.73
2023-04-09T11:13:34.105Z,17.88
2023-04-09T11:16:03.400Z,19.73
2023-04-09T11:18:30.998Z,17.60
2023-04-09T11:21:04.354Z,16.55
2023-04-09T11:23:33.126Z,16.60
2023-04-09T11:25:59.963Z,15.98
2023-04-09T11:28:27.809Z,15.60
2023-04-09T11:30:54.918Z,15.93
2023-04-09T11:33:22.341Z,15.07
2023-04-09T11:35:49.316Z,15.27
2023-04-09T11:38:16.290Z,15.18
2023-04-09T11:40:48.670Z,16.00
2023-04-09T11:43:17.172Z,16.95
2023-04-09T11:45:45.005Z,16.00
2023-04-09T11:48:12.909Z,16.13
2023-04-09T11:50:40.127Z,15.93
2023-04-09T11:53:21.283Z,15.48
2023-04-09T11:55:53.266Z,16.13
2023-04-09T11:58:24.560Z,16.05
2023-04-09T12:00:58.580Z,13.68
2023-04-09T12:03:33.295Z,15.38
2023-04-09T12:06:03.810Z,14.75
2023-04-09T12:08:31.435Z,14.45
2023-04-09T12:11:12.545Z,13.88
2023-04-09T12:13:44.467Z,16.73
2023-04-09T12:16:21.210Z,14.15
2023-04-09T12:18:50.593Z,14.23
2023-04-09T12:21:19.174Z,14.45
2023-04-09T12:23:46.117Z,15.02
2023-04-09T12:26:13.112Z,15.30
2023-04-09T12:28:39.884Z,14.88
2023-04-09T12:31:10.811Z,15.68
2023-04-09T12:33:38.915Z,14.90
2023-04-09T12:36:05.809Z,14.82
2023-04-09T12:38:32.730Z,15.60
2023-04-09T12:40:59.531Z,14.02
2023-04-09T12:43:26.433Z,13.00
2023-04-09T12:45:53.399Z,13.90
2023-04-09T12:48:20.180Z,14.35
2023-04-09T12:50:46.998Z,13.52
2023-04-09T12:53:13.927Z,14.10
2023-04-09T12:55:42.736Z,12.68
2023-04-09T12:58:09.828Z,14.82
2023-04-09T13:00:36.631Z,15.13
2023-04-09T13:03:03.484Z,15.63
2023-04-09T13:05:32.491Z,14.82
2023-04-09T13:08:00.436Z,15.38
2023-04-09T13:10:27.174Z,14.85
2023-04-09T13:12:53.900Z,15.13
2023-04-09T13:15:20.727Z,14.60
2023-04-09T13:17:47.555Z,16.13
2023-04-09T13:20:14.627Z,15.25
2023-04-09T13:22:41.407Z,14.70
2023-04-09T13:25:10.569Z,15.57
2023-04-09T13:27:37.315Z,14.10
2023-04-09T13:30:04.925Z,14.00
2023-04-09T13:32:31.732Z,13.73
2023-04-09T13:34:58.707Z,14.30
2023-04-09T13:37:26.071Z,14.30
2023-04-09T13:39:52.956Z,15.23
2023-04-09T13:42:19.700Z,15.38
2023-04-09T13:44:46.671Z,15.20
2023-04-09T13:47:15.947Z,15.13
2023-04-09T13:49:43.797Z,13.98
2023-04-09T13:52:11.665Z,13.98
2023-04-09T13:54:38.469Z,14.80
2023-04-09T13:57:05.273Z,14.63
2023-04-09T13:59:32.160Z,14.30
2023-04-09T14:01:59.020Z,14.15
2023-04-09T14:04:26.077Z,14.73
2023-04-09T14:06:52.917Z,13.80
2023-04-09T14:09:19.692Z,13.23
2023-04-09T14:11:46.410Z,13.20
2023-04-09T14:14:14.231Z,13.80
2023-04-09T14:16:41.222Z,13.52
2023-04-09T14:19:09.992Z,12.73
2023-04-09T14:21:36.735Z,13.80
2023-04-09T14:24:03.625Z,14.07
2023-04-09T14:26:30.636Z,14.10
2023-04-09T14:28:57.405Z,12.57
2023-04-09T14:31:24.171Z,13.82
2023-04-09T14:33:51.074Z,13.07
2023-04-09T14:36:18.072Z,15.02
2023-04-09T14:38:44.825Z,14.73
2023-04-09T14:41:11.702Z,13.23
2023-04-09T14:43:39.681Z,13.27
2023-04-09T14:46:11.465Z,13.40
2023-04-09T14:48:39.794Z,12.90
2023-04-09T14:51:08.882Z,12.32
2023-04-09T14:53:36.315Z,12.77
2023-04-09T14:56:03.129Z,12.23
2023-04-09T14:58:29.957Z,13.13
2023-04-09T15:00:56.729Z,13.55
2023-04-09T15:03:23.858Z,12.15
2023-04-09T15:05:50.804Z,14.00
2023-04-09T15:08:17.535Z,13.07
2023-04-09T15:10:44.280Z,12.25
2023-04-09T15:13:10.999Z,13.05
2023-04-09T15:15:40.759Z,13.10
2023-04-09T15:18:08.588Z,12.73
2023-04-09T15:20:43.443Z,13.52
2023-04-09T15:23:11.040Z,12.82
2023-04-09T15:25:38.372Z,13.18
2023-04-09T15:28:05.992Z,12.35
2023-04-09T15:30:33.190Z,12.00
2023-04-09T15:33:00.045Z,12.68
2023-04-09T15:35:29.310Z,13.30
2023-04-09T15:37:57.083Z,12.82
2023-04-09T15:40:23.913Z,12.80
2023-04-09T15:42:51.006Z,13.43
2023-04-09T15:45:18.114Z,14.13
2023-04-09T15:47:46.165Z,13.15
2023-04-09T15:50:14.511Z,12.13
2023-04-09T15:52:41.614Z,11.65
2023-04-09T15:55:09.123Z,11.55
2023-04-09T15:57:35.907Z,12.05
2023-04-09T16:00:02.830Z,12.55
2023-04-09T16:02:29.715Z,11.65
2023-04-09T16:04:56.662Z,11.40
2023-04-09T16:07:23.532Z,11.57
2023-04-09T16:09:50.369Z,11.68
2023-04-09T16:12:17.149Z,11.50
2023-04-09T16:14:44.544Z,11.68
2023-04-09T16:17:11.425Z,10.48
2023-04-09T16:19:38.566Z,11.70
2023-04-09T16:22:06.511Z,11.90
2023-04-09T16:24:33.314Z,10.70
2023-04-09T16:27:00.035Z,10.68
2023-04-09T16:29:27.119Z,10.95
2023-04-09T16:31:53.981Z,9.98
2023-04-09T16:34:20.925Z,11.10
2023-04-09T16:36:47.693Z,10.18
2023-04-09T16:39:15.477Z,9.85
2023-04-09T16:41:43.466Z,9.27
2023-04-09T16:44:10.371Z,9.45
2023-04-09T16:46:37.094Z,9.35
2023-04-09T16:49:03.820Z,9.63
2023-04-09T16:51:30.715Z,8.85
2023-04-09T16:53:57.714Z,9.23
2023-04-09T16:56:24.473Z,8.45
2023-04-09T16:58:51.592Z,10.38
2023-04-09T17:01:18.551Z,9.10
2023-04-09T17:03:48.038Z,10.00
2023-04-09T17:06:14.962Z,10.68
2023-04-09T17:08:42.136Z,10.93
2023-04-09T17:11:08.877Z,10.63
2023-04-09T17:13:36.123Z,10.23
2023-04-09T17:16:03.295Z,9.95
2023-04-09T17:18:30.256Z,10.07
2023-04-09T17:20:57.079Z,10.43
2023-04-09T17:23:23.851Z,10.73
2023-04-09T17:25:50.633Z,11.52
2023-04-09T17:28:19.084Z,10.98
2023-04-09T17:30:46.162Z,11.73
2023-04-09T17:33:13.322Z,11.25
2023-04-09T17:35:41.919Z,11.07
2023-04-09T17:38:08.711Z,11.70
2023-04-09T17:40:35.478Z,12.77
2023-04-09T17:43:02.252Z,10.90
2023-04-09T17:45:28.972Z,11.48
2023-04-09T17:47:55.926Z,12.20
2023-04-09T17:50:22.767Z,12.45
2023-04-09T17:52:50.579Z,11.25
2023-04-09T17:55:17.688Z,11.57
2023-04-09T17:57:44.569Z,12.30
2023-04-09T18:00:12.009Z,11.18
2023-04-09T18:02:39.044Z,11.07
2023-04-09T18:05:07.249Z,12.30
2023-04-09T18:07:34.522Z,11.13
2023-04-09T18:10:03.319Z,11.43
2023-04-09T18:12:30.463Z,11.68
2023-04-09T18:14:57.279Z,11.00
2023-04-09T18:17:26.099Z,12.27
2023-04-09T18:19:54.752Z,11.35
2023-04-09T18:22:21.797Z,12.60
2023-04-09T18:24:48.728Z,12.30
2023-04-09T18:27:16.253Z,12.10
2023-04-09T18:29:43.009Z,12.35
2023-04-09T18:32:09.871Z,12.98
2023-04-09T18:34:39.172Z,12.40
2023-04-09T18:37:06.223Z,13.35
2023-04-09T18:39:34.490Z,13.07
2023-04-09T18:42:01.634Z,13.23
2023-04-09T18:44:28.685Z,14.02
2023-04-09T18:46:55.628Z,14.05
2023-04-09T18:49:22.434Z,13.68
2023-04-09T18:51:49.181Z,14.40
2023-04-09T18:54:16.108Z,15.20
2023-04-09T18:56:45.322Z,14.15
2023-04-09T18:59:13.182Z,13.63
2023-04-09T19:01:40.460Z,14.65
2023-04-09T19:04:07.627Z,14.60
2023-04-09T19:06:36.011Z,14.50
2023-04-09T19:09:04.480Z,15.15
2023-04-09T19:11:31.292Z,15.25
2023-04-09T19:13:58.017Z,14.73
2023-04-09T19:16:24.790Z,15.02
2023-04-09T19:18:51.835Z,14.88
2023-04-09T19:21:18.688Z,15.77
2023-04-09T19:23:45.814Z,14.50
2023-04-09T19:26:12.639Z,14.43
2023-04-09T19:28:39.425Z,14.70
2023-04-09T19:31:08.335Z,14.30
2023-04-09T19:33:35.251Z,15.02
2023-04-09T19:36:02.083Z,14.88
2023-04-09T19:38:28.900Z,14.25
2023-04-09T19:40:56.002Z,15.27
2023-04-09T19:43:22.923Z,15.23
2023-04-09T19:45:49.657Z,14.65
2023-04-09T19:48:16.826Z,15.30
2023-04-09T19:50:45.247Z,14.63
2023-04-09T19:53:11.976Z,15.05
2023-04-09T19:55:39.073Z,14.80
2023-04-09T19:58:06.842Z,15.90
2023-04-09T20:00:34.540Z,15.30
2023-04-09T20:03:02.933Z,16.27
2023-04-09T20:05:29.986Z,14.68
2023-04-09T20:07:56.727Z,16.83
2023-04-09T20:10:23.540Z,15.25
2023-04-09T20:12:51.213Z,15.23
2023-04-09T20:15:21.383Z,16.48
2023-04-09T20:17:49.415Z,15.75
2023-04-09T20:20:19.909Z,15.73
2023-04-09T20:22:55.513Z,15.68
2023-04-09T20:25:24.047Z,15.18
2023-04-09T20:27:54.075Z,15.73
2023-04-09T20:30:21.268Z,14.48
2023-04-09T20:32:48.959Z,14.85
2023-04-09T20:35:15.935Z,15.48
2023-04-09T20:37:42.808Z,15.45
2023-04-09T20:40:11.660Z,14.23
2023-04-09T20:42:41.848Z,15.48
2023-04-09T20:45:09.591Z,14.45
2023-04-09T20:47:36.882Z,14.35
2023-04-09T20:50:03.960Z,15.80
2023-04-09T20:52:30.824Z,14.82
2023-04-09T20:54:58.589Z,14.20
2023-04-09T20:57:25.536Z,15.35
2023-04-09T20:59:53.625Z,14.60
2023-04-09T21:02:21.202Z,14.30
2023-04-09T21:04:48.181Z,13.90
2023-04-09T21:07:15.552Z,14.50
2023-04-09T21:09:42.254Z,13.88
2023-04-09T21:12:09.138Z,15.10
2023-04-09T21:14:35.890Z,14.07
2023-04-09T21:17:02.722Z,14.32
2023-04-09T21:19:29.592Z,14.23
2023-04-09T21:21:56.439Z,14.35
2023-04-09T21:24:23.466Z,14.55
2023-04-09T21:26:52.276Z,15.05
2023-04-09T21:29:21.176Z,14.57
2023-04-09T21:31:49.049Z,14.68
2023-04-09T21:34:16.410Z,13.95
2023-04-09T21:36:44.984Z,13.75
2023-04-09T21:39:12.516Z,15.15
2023-04-09T21:41:39.472Z,14.52
2023-04-09T21:44:08.303Z,14.23
2023-04-09T21:46:41.486Z,14.05
2023-04-09T21:49:08.333Z,14.70
2023-04-09T21:51:36.055Z,13.75
2023-04-09T21:54:10.125Z,13.93
2023-04-09T21:56:37.218Z,13.13
2023-04-09T21:59:05.309Z,13.50
2023-04-09T22:01:34.464Z,12.40
2023-04-09T22:04:02.094Z,12.75
2023-04-09T22:06:29.227Z,12.60
2023-04-09T22:08:57.406Z,12.38
2023-04-09T22:11:27.527Z,13.20
2023-04-09T22:13:56.531Z,12.55
2023-04-09T22:16:24.207Z,11.95
2023-04-09T22:18:51.634Z,12.45
2023-04-09T22:21:18.699Z,12.43
2023-04-09T22:23:45.550Z,11.88
2023-04-09T22:26:12.378Z,11.05
2023-04-09T22:28:39.425Z,11.20
2023-04-09T22:31:06.617Z,11.25
2023-04-09T22:33:33.464Z,11.25
2023-04-09T22:36:00.339Z,11.68
2023-04-09T22:38:27.705Z,10.63
2023-04-09T22:40:54.765Z,11.00
2023-04-09T22:43:21.635Z,10.27
2023-04-09T22:45:53.297Z,10.38
2023-04-09T22:48:23.159Z,9.85
2023-04-09T22:50:51.090Z,9.65
2023-04-09T22:53:21.734Z,9.48
2023-04-09T22:55:54.485Z,10.98
2023-04-09T22:58:21.384Z,9.98
2023-04-09T23:00:50.901Z,10.18
2023-04-09T23:03:17.801Z,10.10
2023-04-09T23:05:45.301Z,10.20
2023-04-09T23:08:12.146Z,10.23
2023-04-09T23:10:38.915Z,9.38
2023-04-09T23:13:06.042Z,9.55
2023-04-09T23:15:32.911Z,9.43
2023-04-09T23:18:00.356Z,9.90
2023-04-09T23:20:27.515Z,11.05
2023-04-09T23:22:54.309Z,10.68
2023-04-09T23:25:22.443Z,10.32
2023-04-09T23:27:49.345Z,9.43
2023-04-09T23:30:18.717Z,9.77
2023-04-09T23:32:46.063Z,10.52
2023-04-09T23:35:13.873Z,9.18
2023-04-09T23:37:42.588Z,9.63
2023-04-09T23:40:11.182Z,8.88
2023-04-09T23:42:38.245Z,8.93
2023-04-09T23:45:06.651Z,8.77
2023-04-09T23:47:37.300Z,9.07
2023-04-09T23:50:06.829Z,8.93
2023-04-09T23:52:36.458Z,8.57
2023-04-09T23:55:05.323Z,7.88
2023-04-09T23:57:32.074Z,8.30
2023-04-09T23:59:58.861Z,8.35
